Time;durP1;ratioP1;P1;durP2;ratioP2;P2;SDS_P1;SDS_P2;PMS_P1;PMS_P2;Temp;Humidity;BMP_temperature;BMP_pressure;BME280_temperature;BME280_humidity;BME280_pressure;Samples;Min_cycle;Max_cycle;Signal;HPM_P1;HPM_P2
2021/10/15 00:00:13;;;;;;;8.48;5.18;;;8.40;99.90;;;7.90;100.00;101650.66;4118439;28;20049;-69
2021/10/15 00:02:14;;;;;;;10.30;6.05;;;8.30;99.90;;;7.92;100.00;101656.63;4117255;28;20038;-70
2021/10/15 00:04:15;;;;;;;7.53;5.35;;;8.30;99.90;;;7.87;100.00;101644.81;4116818;28;20034;-70
2021/10/15 00:06:16;;;;;;;6.72;5.22;;;8.20;99.90;;;7.85;100.00;101652.81;4118360;28;20062;-70
2021/10/15 00:08:17;;;;;;;6.13;4.85;;;8.20;99.90;;;7.86;100.00;101646.59;4117088;28;20407;-70
2021/10/15 00:10:17;;;;;;;7.18;5.35;;;8.20;99.90;;;7.92;100.00;101655.78;4117053;28;20399;-70
2021/10/15 00:12:18;;;;;;;8.88;6.00;;;8.20;99.90;;;7.92;100.00;101640.88;4117191;28;20077;-70
2021/10/15 00:14:19;;;;;;;9.38;5.38;;;8.20;99.90;;;7.90;100.00;101647.19;4117083;28;20658;-70
2021/10/15 00:16:20;;;;;;;8.10;5.88;;;8.30;99.90;;;7.90;100.00;101636.69;4118026;28;20533;-70
2021/10/15 00:18:21;;;;;;;8.38;5.63;;;8.30;99.90;;;7.88;100.00;101625.47;4100112;28;20039;-70
2021/10/15 00:20:22;;;;;;;9.30;6.15;;;8.20;99.90;;;7.84;100.00;101624.88;4106300;28;20034;-70
2021/10/15 00:22:23;;;;;;;10.10;6.60;;;8.20;99.90;;;7.78;100.00;101623.53;4118223;28;20457;-70
2021/10/15 00:24:24;;;;;;;9.05;5.78;;;8.20;99.90;;;7.74;100.00;101627.34;4118018;28;20051;-70
2021/10/15 00:26:25;;;;;;;9.68;6.07;;;8.20;99.90;;;7.69;100.00;101623.41;4117938;28;20062;-70
2021/10/15 00:28:26;;;;;;;8.75;6.47;;;8.10;99.90;;;7.71;100.00;101626.75;4116966;28;20050;-70
2021/10/15 00:30:27;;;;;;;7.85;6.00;;;8.10;99.90;;;7.69;100.00;101623.41;4116878;28;20038;-70
2021/10/15 00:32:28;;;;;;;9.45;6.88;;;8.10;99.90;;;7.72;100.00;101626.63;4118020;28;20023;-70
2021/10/15 00:34:29;;;;;;;10.52;5.38;;;8.10;99.90;;;7.70;100.00;101614.59;4116528;28;20027;-70
2021/10/15 00:36:30;;;;;;;9.07;6.38;;;8.10;99.90;;;7.69;100.00;101618.16;4118040;28;20105;-70
2021/10/15 00:38:31;;;;;;;7.95;6.18;;;8.10;99.90;;;7.62;100.00;101611.69;4118015;28;20031;-70
2021/10/15 00:40:32;;;;;;;7.18;5.70;;;8.10;99.90;;;7.65;100.00;101612.28;4117963;28;20053;-70
2021/10/15 00:42:37;;;;;;;10.27;5.93;;;8.10;99.90;;;7.72;100.00;101617.91;4116636;28;20039;-70
2021/10/15 00:44:39;;;;;;;7.53;5.95;;;8.00;99.90;;;7.82;100.00;101618.06;4116780;28;20525;-70
2021/10/15 00:46:42;;;;;;;8.98;5.60;;;8.00;99.90;;;7.75;100.00;101615.06;4116650;28;20030;-70
2021/10/15 00:48:43;;;;;;;7.13;5.72;;;8.10;99.90;;;7.74;100.00;101605.50;4117758;28;20109;-69
2021/10/15 00:50:46;;;;;;;8.52;5.53;;;8.10;99.90;;;7.74;100.00;101614.22;4117420;28;20026;-70
2021/10/15 00:52:47;;;;;;;9.65;6.75;;;8.10;99.90;;;7.55;100.00;101610.47;4116711;28;20085;-70
2021/10/15 00:54:49;;;;;;;7.55;5.43;;;8.10;99.90;;;7.62;100.00;101607.25;4100591;28;20031;-70
2021/10/15 00:56:50;;;;;;;7.80;5.97;;;8.00;99.90;;;7.77;100.00;101613.13;4112822;28;20114;-70
2021/10/15 00:58:51;;;;;;;9.05;5.75;;;8.10;99.90;;;7.61;100.00;101612.66;4116582;28;20041;-70
2021/10/15 01:00:52;;;;;;;7.75;6.07;;;8.10;99.90;;;7.46;100.00;101612.00;4117811;28;20054;-70
2021/10/15 01:02:53;;;;;;;7.82;5.45;;;8.00;99.90;;;7.50;100.00;101615.22;4117722;28;20038;-70
2021/10/15 01:04:56;;;;;;;8.65;5.63;;;8.00;99.90;;;7.43;100.00;101621.91;4116203;28;20037;-69
2021/10/15 01:06:57;;;;;;;8.63;6.22;;;7.90;99.90;;;7.46;100.00;101619.03;4116360;28;20040;-70
2021/10/15 01:08:58;;;;;;;11.55;5.93;;;7.90;99.90;;;7.53;100.00;101621.09;4116500;28;20023;-69
2021/10/15 01:10:59;;;;;;;8.27;5.63;;;7.90;99.90;;;7.56;100.00;101617.38;4116452;28;20037;-69
2021/10/15 01:13:01;;;;;;;6.53;5.32;;;7.90;99.90;;;7.54;100.00;101607.03;4117538;28;20054;-70
2021/10/15 01:15:03;;;;;;;7.80;5.00;;;7.90;99.90;;;7.59;100.00;101604.03;4117423;28;20031;-70
2021/10/15 01:17:06;;;;;;;9.50;6.55;;;7.90;99.90;;;7.51;100.00;101603.78;4116187;28;20050;-69
2021/10/15 01:19:07;;;;;;;7.05;5.47;;;7.90;99.90;;;7.60;100.00;101601.31;4116090;28;20031;-70
2021/10/15 01:21:10;;;;;;;7.07;6.00;;;7.90;99.90;;;7.56;100.00;101597.22;4117435;28;20064;-70
2021/10/15 01:23:11;;;;;;;7.55;5.32;;;7.90;99.90;;;7.61;100.00;101602.16;4116257;28;20026;-70
2021/10/15 01:25:12;;;;;;;9.55;5.47;;;7.90;99.90;;;7.64;100.00;101599.28;4116248;28;20058;-70
2021/10/15 01:27:13;;;;;;;9.85;6.50;;;7.90;99.90;;;7.68;100.00;101596.31;4117348;28;20038;-69
2021/10/15 01:29:14;;;;;;;11.52;8.10;;;8.00;99.90;;;7.92;100.00;101590.13;4116177;28;20038;-70
2021/10/15 01:31:15;;;;;;;9.30;6.80;;;8.00;99.90;;;7.86;100.00;101590.59;4116001;28;20023;-70
2021/10/15 01:33:17;;;;;;;8.95;6.07;;;8.10;99.90;;;7.85;100.00;101583.69;4117463;28;20086;-70
2021/10/15 01:35:18;;;;;;;8.20;6.80;;;8.20;99.90;;;7.82;100.00;101588.19;4117084;28;20067;-70
2021/10/15 01:37:19;;;;;;;8.52;6.47;;;8.10;99.90;;;7.67;100.00;101581.53;4117190;28;20030;-70
2021/10/15 01:39:20;;;;;;;7.78;5.72;;;8.20;99.90;;;7.58;100.00;101595.34;4117129;28;20088;-69
2021/10/15 01:41:21;;;;;;;7.80;5.90;;;8.10;99.90;;;7.53;100.00;101586.97;4124565;28;20035;-70
2021/10/15 01:43:28;;;;;;;8.25;6.53;;;8.10;99.90;;;7.65;100.00;101585.19;4099971;28;20081;-69
2021/10/15 01:45:31;;;;;;;8.52;5.32;;;8.00;99.90;;;7.63;100.00;101598.44;4111919;28;20521;-70
2021/10/15 01:47:32;;;;;;;9.63;6.78;;;8.00;99.90;;;7.64;100.00;101589.63;4115888;28;20066;-70
2021/10/15 01:49:33;;;;;;;6.63;5.68;;;8.00;99.90;;;7.54;100.00;101593.06;4116885;28;20455;-70
2021/10/15 01:51:34;;;;;;;10.18;5.78;;;8.00;99.90;;;7.57;100.00;101596.28;4115974;28;20073;-70
2021/10/15 01:53:36;;;;;;;7.03;5.65;;;8.00;99.90;;;7.52;100.00;101594.97;4117073;28;20022;-70
2021/10/15 01:55:38;;;;;;;7.88;6.15;;;7.90;99.90;;;7.51;100.00;101594.13;4117015;28;20023;-70
2021/10/15 01:57:39;;;;;;;8.02;6.05;;;8.00;99.90;;;7.60;100.00;101590.81;4116047;28;20526;-70
2021/10/15 01:59:40;;;;;;;7.72;5.95;;;7.90;99.90;;;7.73;100.00;101583.69;4115920;28;20031;-70
2021/10/15 02:01:41;;;;;;;9.90;7.05;;;8.00;99.90;;;7.77;100.00;101582.47;4117052;28;20557;-70
2021/10/15 02:03:42;;;;;;;10.13;6.45;;;8.00;99.90;;;7.60;100.00;101577.66;4116902;28;20038;-70
2021/10/15 02:05:43;;;;;;;9.23;6.15;;;8.00;99.90;;;7.46;100.00;101564.75;4099555;28;20040;-70
2021/10/15 02:07:44;;;;;;;9.15;6.80;;;8.10;99.90;;;7.52;100.00;101572.19;4115728;28;20026;-70
2021/10/15 02:09:45;;;;;;;8.98;6.28;;;8.00;99.90;;;7.57;100.00;101570.03;4117031;28;20023;-69
2021/10/15 02:11:46;;;;;;;7.60;5.38;;;8.00;99.90;;;7.54;100.00;101572.03;4115703;28;20030;-69
2021/10/15 02:13:47;;;;;;;8.95;5.57;;;8.00;99.90;;;7.54;100.00;101570.25;4116990;28;20058;-69
2021/10/15 02:15:48;;;;;;;9.32;6.60;;;8.00;99.90;;;7.64;100.00;101570.41;4116776;28;20475;-70
2021/10/15 02:17:49;;;;;;;14.63;8.02;;;8.00;99.90;;;7.65;100.00;101572.06;4115547;28;20034;-70
2021/10/15 02:19:50;;;;;;;11.95;7.53;;;8.10;99.90;;;7.63;100.00;101566.94;4115247;28;20038;-70
2021/10/15 02:21:51;;;;;;;8.05;6.10;;;8.00;99.90;;;7.67;100.00;101563.13;4115661;28;20503;-70
2021/10/15 02:23:52;;;;;;;9.85;6.93;;;8.10;99.90;;;7.62;100.00;101560.00;4115568;28;20063;-70
2021/10/15 02:25:53;;;;;;;8.60;6.15;;;8.10;99.90;;;7.54;100.00;101546.63;4115441;28;20039;-70
2021/10/15 02:27:54;;;;;;;9.60;6.55;;;8.10;99.90;;;7.67;100.00;101573.63;4116606;28;20034;-69
2021/10/15 02:29:55;;;;;;;8.73;5.80;;;8.00;99.90;;;7.50;100.00;101555.69;4115645;28;20030;-70
2021/10/15 02:31:56;;;;;;;9.77;6.97;;;8.00;99.90;;;7.53;100.00;101565.09;4115547;28;20058;-70
2021/10/15 02:33:57;;;;;;;8.85;6.10;;;8.00;99.90;;;7.52;100.00;101566.94;4099223;29;20103;-69
2021/10/15 02:35:58;;;;;;;7.75;5.97;;;8.00;99.90;;;7.61;100.00;101558.34;4116524;28;20042;-69
2021/10/15 02:38:02;;;;;;;10.82;6.43;;;8.00;99.90;;;7.52;100.00;101553.81;4099473;29;20501;-70
2021/10/15 02:40:06;;;;;;;8.07;6.88;;;8.00;99.90;;;7.64;100.00;101565.16;4116648;28;20220;-70
2021/10/15 02:42:07;;;;;;;12.82;7.18;;;7.90;99.90;;;7.74;100.00;101559.06;4117651;28;20493;-69
2021/10/15 02:44:12;;;;;;;13.07;8.02;;;8.00;99.90;;;7.84;100.00;101558.34;4119288;28;20118;-70
2021/10/15 02:46:14;;;;;;;9.70;6.78;;;8.10;99.90;;;7.64;100.00;101555.50;4118362;28;20023;-70
2021/10/15 02:48:15;;;;;;;9.45;7.85;;;8.10;99.90;;;7.77;100.00;101553.56;4119313;28;20019;-70
2021/10/15 02:50:16;;;;;;;8.95;7.07;;;8.10;99.90;;;7.79;100.00;101549.03;4117954;28;20081;-69
2021/10/15 02:52:18;;;;;;;8.90;6.70;;;8.10;99.90;;;7.72;100.00;101554.88;4101890;28;20035;-69
2021/10/15 02:54:19;;;;;;;12.10;8.75;;;8.10;99.90;;;7.80;100.00;101542.00;4167084;28;20023;-69
2021/10/15 02:56:20;;;;;;;9.38;7.53;;;8.10;99.90;;;7.70;100.00;101541.91;4119365;28;20046;-70
2021/10/15 02:58:21;;;;;;;10.65;7.68;;;8.20;99.90;;;7.72;100.00;101539.97;4118143;28;20422;-70
2021/10/15 03:00:22;;;;;;;13.35;8.23;;;8.20;99.90;;;7.84;100.00;101548.69;4118236;28;20030;-69
2021/10/15 03:02:23;;;;;;;10.90;7.45;;;8.20;99.90;;;7.87;100.00;101539.75;4119144;28;20092;-70
2021/10/15 03:04:24;;;;;;;11.40;6.75;;;8.20;99.90;;;7.76;100.00;101536.13;4117722;28;20031;-70
2021/10/15 03:06:25;;;;;;;11.57;8.68;;;8.20;99.90;;;7.79;100.00;101538.53;4119048;28;20030;-70
2021/10/15 03:08:26;;;;;;;9.93;7.70;;;8.20;99.90;;;7.72;100.00;101534.72;4119043;28;20390;-70
2021/10/15 03:10:26;;;;;;;9.32;6.65;;;8.20;99.90;;;7.60;100.00;101540.06;4119232;28;20023;-70
2021/10/15 03:12:27;;;;;;;8.27;6.70;;;8.10;99.90;;;7.47;100.00;101544.56;4119111;28;20034;-69
2021/10/15 03:14:29;;;;;;;9.27;6.70;;;8.10;99.90;;;7.47;100.00;101539.31;4117828;28;20027;-70
2021/10/15 03:16:29;;;;;;;10.23;7.43;;;8.00;99.90;;;7.43;100.00;101544.00;4117405;28;20442;-70
2021/10/15 03:18:30;;;;;;;10.45;6.70;;;7.90;99.90;;;7.51;100.00;101541.63;4117707;28;20034;-70
2021/10/15 03:20:32;;;;;;;10.93;7.40;;;7.90;99.90;;;7.56;100.00;101544.72;4117660;28;20092;-70
2021/10/15 03:22:33;;;;;;;10.65;7.65;;;8.00;99.90;;;7.60;100.00;101545.31;4101795;28;20102;-69
2021/10/15 03:24:34;;;;;;;8.23;7.15;;;8.00;99.90;;;7.56;100.00;101544.72;4133706;28;20045;-70
2021/10/15 03:26:35;;;;;;;9.90;7.38;;;8.00;99.90;;;7.56;100.00;101549.13;4105041;28;20027;-70
2021/10/15 03:28:35;;;;;;;10.52;7.60;;;8.00;99.90;;;7.60;100.00;101540.06;4117769;28;20034;-70
2021/10/15 03:30:36;;;;;;;10.52;7.63;;;8.00;99.90;;;7.68;100.00;101543.78;4117681;28;20073;-70
2021/10/15 03:32:37;;;;;;;8.68;7.05;;;8.10;99.90;;;7.82;100.00;101543.53;4117674;28;20502;-69
2021/10/15 03:34:39;;;;;;;11.07;8.85;;;8.10;99.90;;;7.97;100.00;101541.53;4117456;28;20031;-69
2021/10/15 03:36:39;;;;;;;9.93;7.68;;;8.20;99.90;;;7.89;100.00;101550.94;4118862;28;20474;-70
2021/10/15 03:38:40;;;;;;;10.35;6.75;;;8.20;99.90;;;7.71;100.00;101546.16;4118741;28;20030;-70
2021/10/15 03:40:42;;;;;;;11.02;6.38;;;8.20;99.90;;;7.66;100.00;101545.69;4117584;28;20031;-70
2021/10/15 03:42:43;;;;;;;9.27;6.68;;;8.20;99.90;;;7.68;100.00;101551.66;4117510;28;20031;-70
2021/10/15 03:44:44;;;;;;;8.50;7.35;;;8.10;99.90;;;7.66;100.00;101550.09;4101538;29;20411;-70
2021/10/15 03:46:45;;;;;;;13.82;7.88;;;8.10;99.90;;;7.50;100.00;101553.06;4111658;28;20062;-70
2021/10/15 03:48:45;;;;;;;14.27;7.85;;;8.10;99.90;;;7.68;100.00;101563.94;4118371;28;20394;-70
2021/10/15 03:50:46;;;;;;;15.93;8.95;;;8.10;99.90;;;7.80;100.00;101552.50;4118560;28;20047;-70
2021/10/15 03:52:47;;;;;;;11.88;8.90;;;8.10;99.90;;;8.01;100.00;101550.84;4118283;28;20027;-70
2021/10/15 03:54:48;;;;;;;12.18;8.90;;;8.20;99.90;;;8.03;100.00;101548.09;4116700;28;20026;-70
2021/10/15 03:56:49;;;;;;;9.48;8.05;;;8.30;99.90;;;7.93;100.00;101549.75;4101360;28;20038;-70
2021/10/15 03:58:50;;;;;;;12.32;9.05;;;8.30;99.90;;;7.87;100.00;101558.97;4132327;28;20038;-70
2021/10/15 04:00:51;;;;;;;11.70;8.70;;;8.30;99.90;;;7.99;100.00;101551.91;4106828;28;20545;-70
2021/10/15 04:02:52;;;;;;;12.20;8.60;;;8.40;99.90;;;8.01;100.00;101553.47;4118518;28;20037;-70
2021/10/15 04:04:53;;;;;;;12.57;9.45;;;8.40;99.90;;;7.86;100.00;101544.16;4118180;28;20038;-70
2021/10/15 04:06:54;;;;;;;11.57;8.77;;;8.40;99.90;;;7.84;100.00;101555.72;4118367;28;20511;-70
2021/10/15 04:08:55;;;;;;;10.52;8.60;;;8.40;99.90;;;7.81;100.00;101543.69;4101303;28;20431;-70
2021/10/15 04:10:55;;;;;;;12.60;9.60;;;8.40;99.90;;;7.77;100.00;101560.63;4118435;28;20027;-70
2021/10/15 04:12:56;;;;;;;12.90;9.40;;;8.30;99.90;;;7.83;100.00;101560.16;4117260;28;20026;-70
2021/10/15 04:14:57;;;;;;;12.00;9.25;;;8.40;99.90;;;7.98;100.00;101555.50;4118248;28;20058;-70
2021/10/15 04:16:58;;;;;;;18.77;9.50;;;8.30;99.90;;;8.03;100.00;101562.09;4116993;28;20461;-70
2021/10/15 04:19:00;;;;;;;11.45;8.25;;;8.40;99.90;;;7.99;100.00;101551.91;4118115;28;20034;-70
2021/10/15 04:21:01;;;;;;;13.10;8.90;;;8.40;99.90;;;7.95;100.00;101558.34;4117123;28;20073;-70
2021/10/15 04:23:02;;;;;;;12.20;9.20;;;8.40;99.90;;;7.85;100.00;101557.41;4118159;28;20111;-70
2021/10/15 04:25:05;;;;;;;10.45;8.52;;;8.40;99.90;;;7.77;100.00;101563.25;4117098;28;20034;-70
2021/10/15 04:27:06;;;;;;;14.30;9.10;;;8.30;99.90;;;7.78;100.00;101555.25;4118231;28;20031;-70
2021/10/15 04:29:07;;;;;;;11.45;8.68;;;8.30;99.90;;;7.71;100.00;101542.69;4118157;28;20031;-70
2021/10/15 04:31:08;;;;;;;12.63;9.07;;;8.30;99.90;;;7.72;100.00;101547.84;4118056;28;20034;-70
2021/10/15 04:33:09;;;;;;;12.95;9.20;;;8.20;99.90;;;7.72;100.00;101547.84;4118215;28;20031;-70
2021/10/15 04:35:10;;;;;;;12.68;10.05;;;8.20;99.90;;;7.69;100.00;101549.88;4116561;28;20038;-70
2021/10/15 04:37:11;;;;;;;12.85;9.88;;;8.20;99.90;;;7.69;100.00;101555.97;4116940;28;20535;-70
2021/10/15 04:39:11;;;;;;;10.15;9.05;;;8.20;99.90;;;7.67;100.00;101557.03;4117987;28;20402;-70
2021/10/15 04:41:13;;;;;;;11.18;9.20;;;8.20;99.90;;;7.78;100.00;101555.25;4118074;28;20073;-70
2021/10/15 04:43:13;;;;;;;12.23;9.70;;;8.20;99.90;;;7.73;100.00;101546.06;4116904;28;20599;-69
2021/10/15 04:45:14;;;;;;;12.52;9.15;;;8.20;99.90;;;7.80;100.00;101542.00;4116745;28;20090;-70
2021/10/15 04:47:15;;;;;;;11.63;9.20;;;8.20;99.90;;;7.78;100.00;101544.75;4116740;28;20027;-70
2021/10/15 04:49:18;;;;;;;12.45;9.27;;;8.20;99.90;;;7.72;100.00;101544.38;4116459;28;20488;-70
2021/10/15 04:51:19;;;;;;;12.48;9.23;;;8.20;99.90;;;7.66;100.00;101550.09;4116849;28;20049;-70
2021/10/15 04:53:20;;;;;;;11.95;9.30;;;8.20;99.90;;;7.65;100.00;101545.81;4116763;28;20037;-69
2021/10/15 04:55:21;;;;;;;10.48;7.82;;;8.20;99.90;;;7.59;100.00;101543.66;4116622;28;20023;-70
2021/10/15 04:57:21;;;;;;;13.95;9.00;;;8.10;99.90;;;7.63;100.00;101547.72;4116682;28;20139;-70
2021/10/15 04:59:22;;;;;;;12.20;9.52;;;8.10;99.90;;;7.67;100.00;101551.78;4116648;28;20046;-69
2021/10/15 05:01:23;;;;;;;12.02;8.57;;;8.10;99.90;;;7.51;100.00;101549.50;4116565;28;20034;-70
2021/10/15 05:03:24;;;;;;;12.77;9.18;;;8.10;99.90;;;7.56;100.00;101552.59;4116597;28;20027;-70
2021/10/15 05:05:28;;;;;;;10.70;8.70;;;8.00;99.90;;;7.57;100.00;101545.56;4117075;28;20072;-70
2021/10/15 05:07:29;;;;;;;10.88;8.57;;;8.00;99.90;;;7.51;100.00;101554.75;4116550;28;20481;-70
2021/10/15 05:09:33;;;;;;;12.50;9.07;;;8.00;99.90;;;7.47;100.00;101553.28;4117642;28;20030;-70
2021/10/15 05:11:35;;;;;;;13.02;9.00;;;7.90;99.90;;;7.45;100.00;101552.59;4117553;28;20027;-70
2021/10/15 05:13:36;;;;;;;14.88;8.50;;;7.90;99.90;;;7.38;100.00;101551.34;4116613;28;20031;-70
2021/10/15 05:15:37;;;;;;;11.07;8.43;;;7.90;99.90;;;7.33;100.00;101547.41;4117692;28;20031;-70
2021/10/15 05:17:39;;;;;;;12.38;9.32;;;7.80;99.90;;;7.33;100.00;101542.16;4116208;28;20066;-70
2021/10/15 05:19:41;;;;;;;10.90;8.95;;;7.80;99.90;;;7.35;100.00;101556.84;4117185;28;20085;-70
2021/10/15 05:21:42;;;;;;;11.80;8.57;;;7.80;99.90;;;7.38;100.00;101561.84;4116683;28;20064;-70
2021/10/15 05:23:42;;;;;;;11.93;8.85;;;7.70;99.90;;;7.46;100.00;101543.75;4100376;28;20031;-70
2021/10/15 05:25:44;;;;;;;12.85;8.82;;;7.80;99.90;;;7.36;100.00;101545.41;4116377;28;20790;-70
2021/10/15 05:27:45;;;;;;;12.90;8.75;;;7.70;99.90;;;7.21;100.00;101549.19;4117240;28;20034;-70
2021/10/15 05:29:48;;;;;;;11.35;8.85;;;7.70;99.90;;;7.24;100.00;101546.31;4117388;28;20039;-70
2021/10/15 05:31:48;;;;;;;9.80;8.35;;;7.70;99.90;;;7.20;100.00;101539.63;4117414;28;20035;-70
2021/10/15 05:33:50;;;;;;;11.95;9.02;;;7.70;99.90;;;7.15;100.00;101531.25;4116098;28;20027;-70
2021/10/15 05:35:51;;;;;;;10.82;8.45;;;7.60;99.90;;;7.14;100.00;101537.44;4116165;28;20019;-70
2021/10/15 05:37:52;;;;;;;11.73;8.55;;;7.60;99.90;;;7.09;100.00;101535.19;4117419;28;20023;-70
2021/10/15 05:39:53;;;;;;;10.63;8.45;;;7.60;99.90;;;7.02;100.00;101528.72;4117382;28;20027;-70
2021/10/15 05:41:54;;;;;;;13.10;8.65;;;7.60;99.90;;;6.89;100.00;101535.00;4100027;29;20040;-70
2021/10/15 05:43:55;;;;;;;9.70;8.70;;;7.50;99.90;;;7.04;100.00;101531.25;4117204;28;20015;-70
2021/10/15 05:45:56;;;;;;;14.18;10.07;;;7.50;99.90;;;7.04;100.00;101526.00;4116232;28;20030;-70
2021/10/15 05:47:56;;;;;;;10.57;7.93;;;7.50;99.90;;;7.07;100.00;101528.38;4117246;28;20015;-70
2021/10/15 05:49:58;;;;;;;9.23;8.27;;;7.50;99.90;;;7.17;100.00;101521.47;4115735;28;20033;-70
2021/10/15 05:52:04;;;;;;;10.73;8.88;;;7.50;99.90;;;7.12;100.00;101518.38;4117142;28;20019;-70
2021/10/15 05:54:06;;;;;;;9.93;7.68;;;7.50;99.90;;;7.00;100.00;101516.66;4116440;28;20093;-70
2021/10/15 06:00:42;;;;;;;11.13;8.70;;;7.40;99.90;;;7.06;100.00;101519.69;4116227;28;20096;-70
2021/10/15 06:02:45;;;;;;;11.55;9.32;;;7.40;99.90;;;7.17;100.00;101527.56;4115853;28;20043;-70
2021/10/15 06:16:10;;;;;;;9.25;7.40;;;7.30;99.90;;;6.75;100.00;101519.44;4115071;28;20038;-70
2021/10/15 06:18:14;;;;;;;9.10;7.25;;;7.20;99.90;;;6.69;100.00;101516.31;4119222;28;20019;-70
2021/10/15 06:20:15;;;;;;;8.35;7.30;;;7.20;99.90;;;6.66;100.00;101521.78;4119481;28;20023;-70
2021/10/15 06:22:15;;;;;;;9.18;6.93;;;7.10;99.90;;;6.71;100.00;101523.22;4118484;28;20108;-70
2021/10/15 06:24:17;;;;;;;11.80;7.05;;;7.10;99.90;;;6.73;100.00;101529.19;4102981;29;20031;-70
2021/10/15 06:26:18;;;;;;;10.43;7.45;;;7.10;99.90;;;6.80;100.00;101523.41;4119807;28;20047;-69
2021/10/15 06:28:19;;;;;;;11.27;8.00;;;7.10;99.90;;;6.84;100.00;101542.38;4119932;28;20038;-70
2021/10/15 06:30:20;;;;;;;12.10;7.80;;;7.10;99.90;;;6.87;100.00;101547.41;4120668;28;20023;-69
2021/10/15 06:32:23;;;;;;;10.30;8.52;;;7.10;99.90;;;6.73;100.00;101534.44;4120327;28;20031;-69
2021/10/15 06:34:24;;;;;;;10.65;7.88;;;7.10;99.90;;;6.65;100.00;101535.00;4119053;28;20031;-69
2021/10/15 06:36:25;;;;;;;10.73;7.90;;;7.10;99.90;;;6.71;100.00;101539.81;4119295;28;20034;-69
2021/10/15 06:38:26;;;;;;;8.52;7.30;;;7.20;99.90;;;6.78;100.00;101545.44;4103327;29;20483;-69
2021/10/15 06:40:27;;;;;;;8.65;7.57;;;7.20;99.90;;;6.74;100.00;101549.22;4120436;28;20034;-70
2021/10/15 06:42:28;;;;;;;10.25;7.63;;;7.20;99.90;;;6.68;100.00;101551.34;4120177;28;20035;-69
2021/10/15 06:44:29;;;;;;;9.10;7.20;;;7.10;99.90;;;6.67;100.00;101540.97;4119008;28;20145;-69
2021/10/15 06:46:30;;;;;;;9.75;7.70;;;7.10;99.90;;;6.68;100.00;101542.66;4120203;28;20027;-70
2021/10/15 06:48:32;;;;;;;15.00;7.95;;;7.10;99.90;;;6.74;100.00;101544.81;4119062;28;20030;-70
2021/10/15 06:50:33;;;;;;;10.57;7.50;;;7.20;99.90;;;6.67;100.00;101549.66;4119741;28;20027;-70
2021/10/15 06:52:46;;;;;;;13.85;8.68;;;7.20;99.90;;;6.52;100.00;101547.31;4120634;28;20052;-69
2021/10/15 06:54:47;;;;;;;12.77;7.78;;;7.10;99.90;;;6.56;100.00;101540.91;4120750;28;20034;-69
2021/10/15 06:56:49;;;;;;;11.80;7.68;;;7.10;99.90;;;6.72;100.00;101551.94;4119763;28;20110;-70
2021/10/15 06:58:50;;;;;;;12.82;7.18;;;7.10;99.90;;;6.83;100.00;101543.31;4118960;28;20031;-69
2021/10/15 07:00:51;;;;;;;10.63;8.48;;;7.20;99.90;;;6.73;100.00;101544.91;4119117;28;20524;-70
2021/10/15 07:02:52;;;;;;;10.15;7.32;;;7.20;99.90;;;6.73;100.00;101558.03;4120170;28;20399;-70
2021/10/15 07:04:53;;;;;;;11.25;7.97;;;7.20;99.90;;;6.75;100.00;101554.34;4102734;28;20035;-70
2021/10/15 07:06:54;;;;;;;10.02;7.57;;;7.20;99.90;;;7.02;100.00;101562.81;4118413;28;20058;-70
2021/10/15 07:08:55;;;;;;;8.25;7.05;;;7.30;99.90;;;7.03;100.00;101568.91;4119259;28;20065;-70
2021/10/15 07:10:56;;;;;;;11.27;8.45;;;7.40;99.90;;;7.04;100.00;101555.69;4120216;28;20022;-70
2021/10/15 07:12:57;;;;;;;11.65;8.40;;;7.40;99.90;;;7.29;100.00;101564.38;4120198;28;20070;-70
2021/10/15 07:14:58;;;;;;;10.25;7.35;;;7.50;99.90;;;7.22;100.00;101566.59;4119979;28;20027;-70
2021/10/15 07:16:59;;;;;;;9.32;7.10;;;7.60;99.90;;;7.12;100.00;101566.44;4102747;28;20047;-70
2021/10/15 07:19:00;;;;;;;9.63;7.32;;;7.60;99.90;;;7.06;100.00;101572.13;4111683;28;20061;-70
2021/10/15 07:21:02;;;;;;;9.95;7.28;;;7.60;99.90;;;7.12;100.00;101569.06;4119849;28;20027;-70
2021/10/15 07:23:03;;;;;;;9.30;7.15;;;7.70;99.90;;;7.18;100.00;101568.59;4119965;28;20038;-70
2021/10/15 07:25:06;;;;;;;12.05;7.97;;;7.70;99.90;;;7.28;100.00;101576.63;4102852;28;20035;-70
2021/10/15 07:27:07;;;;;;;10.40;7.75;;;7.70;99.90;;;7.31;100.00;101576.41;4109804;28;20029;-70
2021/10/15 07:29:08;;;;;;;11.77;8.38;;;7.70;99.90;;;7.33;100.00;101571.03;4119525;28;20058;-70
2021/10/15 07:31:09;;;;;;;13.57;9.43;;;7.80;99.90;;;7.60;100.00;101571.59;4117774;28;20105;-70
2021/10/15 07:33:10;;;;;;;12.70;8.85;;;8.00;99.90;;;7.65;100.00;101577.31;4101489;28;20047;-70
2021/10/15 07:35:12;;;;;;;12.00;9.13;;;8.10;99.90;;;7.75;100.00;101571.25;4100853;28;20066;-70
2021/10/15 07:37:13;;;;;;;13.80;9.13;;;8.30;99.90;;;7.97;100.00;101580.13;4117473;28;20039;-70
2021/10/15 07:39:14;;;;;;;11.75;8.75;;;8.40;99.90;;;8.10;100.00;101581.66;4117430;28;20113;-70
2021/10/15 07:41:17;;;;;;;10.93;9.05;;;8.50;99.90;;;8.23;100.00;101592.06;4118732;28;20027;-70
2021/10/15 07:43:18;;;;;;;13.68;9.40;;;8.70;99.90;;;8.39;100.00;101584.69;4118677;28;20035;-70
2021/10/15 07:45:19;;;;;;;9.15;8.18;;;8.80;99.90;;;8.57;100.00;101585.00;4117592;28;20173;-70
2021/10/15 07:47:19;;;;;;;13.50;9.00;;;9.00;99.90;;;8.72;100.00;101591.66;4117477;28;20514;-70
2021/10/15 07:49:20;;;;;;;10.43;8.60;;;9.10;99.90;;;8.76;100.00;101596.53;4117199;28;20065;-70
2021/10/15 07:51:21;;;;;;;10.93;8.00;;;9.20;99.90;;;8.86;99.84;101591.38;4117582;28;20037;-70
2021/10/15 07:53:22;;;;;;;10.13;7.82;;;9.40;99.90;;;8.83;100.00;101586.38;4118698;28;20121;-70
2021/10/15 07:55:23;;;;;;;12.63;7.50;;;9.50;99.90;;;8.92;98.92;101585.63;4101281;28;20031;-70
2021/10/15 07:57:24;;;;;;;13.30;8.88;;;9.60;99.90;;;8.91;99.16;101594.47;4106333;28;20035;-70
2021/10/15 07:59:25;;;;;;;11.32;7.93;;;9.60;99.90;;;8.82;99.75;101589.94;4117290;28;20031;-70
2021/10/15 08:01:27;;;;;;;14.63;8.82;;;9.70;99.90;;;8.75;99.77;101586.16;4101260;29;20073;-69
2021/10/15 08:03:30;;;;;;;13.38;8.10;;;9.70;99.90;;;8.95;99.80;101595.91;4117114;28;20033;-69
2021/10/15 08:05:31;;;;;;;10.35;7.50;;;9.70;99.90;;;8.98;99.43;101598.28;4118479;28;20031;-70
2021/10/15 08:07:32;;;;;;;10.93;7.63;;;9.80;99.90;;;8.88;100.00;101579.78;4117299;28;20031;-70
2021/10/15 08:09:33;;;;;;;10.25;7.80;;;9.80;99.90;;;9.05;100.00;101607.31;4118392;28;20034;-70
2021/10/15 08:11:34;;;;;;;12.50;8.50;;;9.80;99.90;;;9.10;98.75;101601.72;4101053;28;20027;-70
2021/10/15 08:13:35;;;;;;;12.85;8.45;;;9.90;99.90;;;9.25;98.53;101609.19;4133595;28;20033;-70
2021/10/15 08:15:36;;;;;;;12.15;8.05;;;10.00;99.90;;;9.34;97.91;101604.94;4117276;28;20061;-70
2021/10/15 08:17:37;;;;;;;11.43;8.23;;;10.10;99.90;;;9.36;98.44;101605.66;4110839;28;20058;-70
2021/10/15 08:19:41;;;;;;;13.95;9.18;;;10.10;99.90;;;9.54;97.77;101617.28;4116938;28;20042;-70
2021/10/15 08:21:42;;;;;;;11.35;7.85;;;10.20;99.90;;;9.55;97.21;101610.22;4117282;28;20581;-70
2021/10/15 08:23:44;;;;;;;9.70;8.00;;;10.40;99.90;;;9.61;97.55;101615.00;4118255;28;20039;-70
2021/10/15 08:25:45;;;;;;;13.90;8.68;;;10.40;99.90;;;9.72;96.89;101615.75;4118319;28;20035;-70
2021/10/15 08:27:46;;;;;;;10.80;8.07;;;10.50;99.90;;;9.76;97.12;101618.97;4118273;28;20057;-70
2021/10/15 08:29:47;;;;;;;13.80;8.63;;;10.60;99.90;;;9.77;97.29;101631.16;4118248;28;20053;-70
2021/10/15 08:31:50;;;;;;;12.52;8.77;;;10.60;99.90;;;9.88;97.45;101624.03;4118098;28;20026;-70
2021/10/15 08:33:51;;;;;;;14.45;8.95;;;10.70;99.90;;;10.03;97.22;101633.25;4116586;28;20054;-70
2021/10/15 08:35:52;;;;;;;9.48;7.70;;;10.90;99.90;;;10.19;97.32;101647.81;4100721;29;20078;-70
2021/10/15 08:37:53;;;;;;;9.18;7.03;;;11.00;99.90;;;10.19;97.63;101639.88;4117046;28;20482;-70
2021/10/15 08:39:54;;;;;;;10.57;8.02;;;11.10;99.90;;;10.25;97.68;101631.44;4116148;28;20109;-70
2021/10/15 08:42:00;;;;;;;10.70;7.55;;;11.20;99.90;;;10.46;96.55;101637.50;4118142;28;20084;-70